Time;durP1;ratioP1;P1;durP2;ratioP2;P2;SDS_P1;SDS_P2;PMS_P1;PMS_P2;Temp;Humidity;BMP_temperature;BMP_pressure;BME280_temperature;BME280_humidity;BME280_pressure;Samples;Min_cycle;Max_cycle;Signal;HPM_P1;HPM_P2
2022/09/07 00:03:01;;;;;;;8.17;3.63;;;10.80;93.00;;;;;;4764527;30;20228;-85
2022/09/07 00:05:30;;;;;;;7.80;3.70;;;10.70;93.40;;;;;;4736676;30;20433;-85
2022/09/07 00:07:58;;;;;;;6.50;3.37;;;10.70;93.40;;;;;;4752760;30;20209;-86
2022/09/07 00:10:26;;;;;;;8.53;3.70;;;10.70;93.60;;;;;;4751162;30;20210;-84
2022/09/07 00:12:59;;;;;;;7.97;3.73;;;10.60;93.70;;;;;;4750365;30;20265;-86
2022/09/07 00:15:26;;;;;;;7.67;4.20;;;10.60;93.90;;;;;;4751316;30;20220;-85
2022/09/07 00:17:54;;;;;;;7.40;3.70;;;10.60;94.10;;;;;;4736589;30;20695;-85
2022/09/07 00:20:23;;;;;;;6.63;4.00;;;10.50;94.40;;;;;;4814890;24;20308;-87
2022/09/07 00:23:30;;;;;;;8.00;4.03;;;10.50;94.90;;;;;;4804734;29;20229;-85
2022/09/07 00:26:02;;;;;;;9.03;3.97;;;10.40;95.00;;;;;;4804985;29;20238;-86
2022/09/07 00:28:29;;;;;;;8.40;4.27;;;10.30;95.40;;;;;;4805876;29;20204;-85
2022/09/07 00:30:57;;;;;;;8.23;4.27;;;10.20;95.60;;;;;;4805699;29;20754;-85
2022/09/07 00:33:37;;;;;;;8.97;4.20;;;10.20;95.80;;;;;;4804640;29;20654;-85
2022/09/07 00:36:18;;;;;;;10.77;4.13;;;10.10;96.00;;;;;;4804743;29;20215;-86
2022/09/07 00:38:49;;;;;;;7.53;3.93;;;10.10;96.20;;;;;;4805879;29;20200;-86
2022/09/07 00:41:33;;;;;;;8.57;3.50;;;10.10;96.50;;;;;;4785821;24;20715;-84
2022/09/07 00:44:50;;;;;;;9.83;4.27;;;10.00;96.70;;;;;;4771754;30;20216;-84
2022/09/07 00:47:25;;;;;;;10.90;4.20;;;10.00;97.00;;;;;;4768474;30;20596;-85
2022/09/07 00:50:32;;;;;;;8.57;4.20;;;10.00;97.30;;;;;;4740249;30;20264;-84
2022/09/07 00:53:22;;;;;;;6.33;3.77;;;9.80;97.70;;;;;;4768259;30;20205;-84
2022/09/07 00:55:51;;;;;;;12.43;4.20;;;9.80;98.10;;;;;;4769851;30;20202;-85
2022/09/07 00:58:20;;;;;;;9.27;4.20;;;9.70;98.60;;;;;;4753616;30;20270;-84
2022/09/07 01:00:49;;;;;;;8.77;4.10;;;9.60;98.90;;;;;;4754042;30;20284;-85
2022/09/07 01:03:25;;;;;;;7.23;3.83;;;9.60;99.40;;;;;;4812662;24;20277;-84
2022/09/07 01:06:15;;;;;;;9.73;4.20;;;9.60;99.90;;;;;;4807472;29;20218;-87
2022/09/07 01:08:43;;;;;;;8.13;4.20;;;9.50;99.90;;;;;;4807263;29;20223;-86
2022/09/07 01:11:12;;;;;;;9.53;4.37;;;9.50;99.90;;;;;;4807541;29;20242;-85
2022/09/07 01:14:12;;;;;;;6.23;3.77;;;9.40;99.90;;;;;;4792426;29;20708;-86
2022/09/07 01:16:39;;;;;;;7.83;4.17;;;9.30;99.90;;;;;;4807295;29;20683;-85
2022/09/07 01:19:22;;;;;;;11.93;4.77;;;9.30;99.90;;;;;;4822547;29;20225;-85
2022/09/07 01:22:48;;;;;;;9.90;4.60;;;9.20;99.90;;;;;;4807201;29;20297;-85
2022/09/07 01:25:44;;;;;;;8.63;4.20;;;9.30;99.90;;;;;;4805862;29;20646;-84
2022/09/07 01:28:31;;;;;;;6.90;4.20;;;9.00;99.90;;;;;;4806554;29;20211;-89
2022/09/07 01:31:23;;;;;;;8.27;4.00;;;8.90;99.90;;;;;;4791202;29;20671;-87
2022/09/07 01:33:56;;;;;;;9.90;4.40;;;8.90;99.90;;;;;;4806628;29;20204;-85
2022/09/07 01:37:22;;;;;;;12.57;4.67;;;8.80;99.90;;;;;;4769728;30;20604;-85
2022/09/07 01:40:01;;;;;;;12.47;4.67;;;8.60;99.90;;;;;;4755656;30;20224;-86
2022/09/07 01:42:35;;;;;;;7.60;4.10;;;8.60;99.90;;;;;;4770866;30;20267;-85
2022/09/07 01:45:10;;;;;;;7.57;4.20;;;8.50;99.90;;;;;;4770538;30;20664;-86
2022/09/07 01:47:55;;;;;;;7.20;4.37;;;8.60;99.90;;;;;;4752653;30;20205;-86
2022/09/07 01:50:34;;;;;;;9.97;4.80;;;8.50;99.90;;;;;;4752696;30;20234;-87
2022/09/07 01:53:23;;;;;;;9.27;4.70;;;8.40;99.90;;;;;;4752533;30;20220;-86
2022/09/07 01:56:29;;;;;;;8.10;4.80;;;8.30;99.90;;;;;;4738034;30;20209;-86
2022/09/07 01:59:06;;;;;;;6.93;4.33;;;8.30;99.90;;;;;;4752268;30;20296;-84
2022/09/07 02:01:40;;;;;;;7.47;4.57;;;8.20;99.90;;;;;;4763396;30;20215;-86
2022/09/07 02:04:23;;;;;;;9.67;4.63;;;8.10;99.90;;;;;;4755270;30;20296;-85
2022/09/07 02:07:07;;;;;;;11.27;4.83;;;8.10;99.90;;;;;;4777404;29;20206;-86
2022/09/07 02:09:39;;;;;;;10.07;4.50;;;8.10;99.90;;;;;;4806619;29;20227;-85
2022/09/07 02:12:23;;;;;;;8.53;4.67;;;8.00;99.90;;;;;;4778263;29;20307;-84
2022/09/07 02:15:01;;;;;;;9.17;4.37;;;8.00;99.90;;;;;;4792179;29;20205;-83
2022/09/07 02:17:40;;;;;;;8.33;4.67;;;7.90;99.90;;;;;;4807734;29;20202;-84
2022/09/07 02:20:30;;;;;;;9.03;4.43;;;8.00;99.90;;;;;;4791514;29;20657;-84
2022/09/07 02:23:01;;;;;;;18.30;5.87;;;8.00;99.90;;;;;;4791723;29;20212;-85
2022/09/07 02:25:43;;;;;;;8.97;4.87;;;7.90;99.90;;;;;;4791800;29;20668;-85
2022/09/07 02:28:22;;;;;;;10.80;4.63;;;7.90;99.90;;;;;;4791687;29;20250;-85
2022/09/07 02:30:49;;;;;;;12.83;4.90;;;7.90;99.90;;;;;;4792982;29;20324;-86
2022/09/07 02:33:17;;;;;;;9.33;4.43;;;7.80;99.90;;;;;;4806387;29;20199;-85
2022/09/07 02:35:45;;;;;;;9.07;4.43;;;7.80;99.90;;;;;;4776122;29;20204;-86
2022/09/07 02:38:12;;;;;;;9.67;4.33;;;7.80;99.90;;;;;;4791523;29;20218;-87
2022/09/07 02:40:39;;;;;;;12.87;5.27;;;7.80;99.90;;;;;;4791313;29;20695;-85
2022/09/07 02:43:09;;;;;;;10.13;4.67;;;7.80;99.90;;;;;;4791053;29;20206;-88
2022/09/07 02:45:54;;;;;;;8.90;4.57;;;7.80;99.90;;;;;;4790721;29;20227;-87
2022/09/07 02:48:29;;;;;;;9.40;4.80;;;7.70;99.90;;;;;;4806219;29;20549;-85
2022/09/07 02:51:32;;;;;;;12.90;4.77;;;7.70;99.90;;;;;;4791102;29;20758;-84
2022/09/07 02:54:01;;;;;;;14.13;5.60;;;7.70;99.90;;;;;;4806053;29;20405;-85
2022/09/07 02:56:50;;;;;;;10.73;5.13;;;7.70;99.90;;;;;;4806044;29;20204;-85
2022/09/07 03:00:04;;;;;;;8.93;4.60;;;7.70;99.90;;;;;;4807188;29;20229;-85
2022/09/07 03:02:44;;;;;;;10.80;4.90;;;7.60;99.90;;;;;;4782597;29;20271;-83
2022/09/07 03:05:26;;;;;;;12.33;5.20;;;7.60;99.90;;;;;;4772980;30;20260;-85
2022/09/07 03:08:19;;;;;;;9.77;4.90;;;7.60;99.90;;;;;;4773178;30;20601;-84
2022/09/07 03:10:47;;;;;;;10.70;4.80;;;7.50;99.90;;;;;;4772705;30;20330;-85
2022/09/07 03:13:30;;;;;;;9.27;4.93;;;7.50;99.90;;;;;;4787585;30;20257;-84
2022/09/07 03:16:00;;;;;;;10.13;4.70;;;7.50;99.90;;;;;;4772683;30;20212;-86
2022/09/07 03:18:28;;;;;;;12.23;5.10;;;7.50;99.90;;;;;;4788904;30;20666;-84
2022/09/07 03:20:55;;;;;;;12.13;5.23;;;7.40;99.90;;;;;;4788543;30;20221;-82
2022/09/07 03:23:22;;;;;;;8.80;4.43;;;7.40;99.90;;;;;;4772565;30;20588;-86
2022/09/07 03:26:06;;;;;;;10.27;4.83;;;7.40;99.90;;;;;;4782681;30;20212;-82
2022/09/07 03:28:33;;;;;;;7.77;4.53;;;7.30;99.90;;;;;;4772595;30;20206;-85
2022/09/07 03:31:01;;;;;;;7.20;4.70;;;7.40;99.90;;;;;;4772091;30;20316;-83
2022/09/07 03:33:28;;;;;;;10.93;4.70;;;7.30;99.90;;;;;;4772264;30;20542;-85
2022/09/07 03:35:58;;;;;;;10.27;4.77;;;7.30;99.90;;;;;;4788559;30;20200;-85
2022/09/07 03:38:35;;;;;;;9.43;5.30;;;7.20;99.90;;;;;;4788682;30;20189;-84
2022/09/07 03:41:17;;;;;;;11.43;5.37;;;7.30;99.90;;;;;;4787636;30;20208;-84
2022/09/07 03:43:47;;;;;;;15.03;5.10;;;7.10;99.90;;;;;;4788061;30;20540;-85
2022/09/07 03:46:18;;;;;;;8.83;4.73;;;7.10;99.90;;;;;;4772530;30;20227;-84
2022/09/07 03:48:47;;;;;;;9.20;4.90;;;7.10;99.90;;;;;;4788830;30;20206;-86
2022/09/07 03:51:16;;;;;;;10.50;5.00;;;7.10;99.90;;;;;;4787277;30;20304;-84
2022/09/07 03:53:50;;;;;;;10.97;4.90;;;7.00;99.90;;;;;;4772075;30;20214;-84
2022/09/07 03:56:22;;;;;;;10.97;5.30;;;7.00;99.90;;;;;;4772087;30;20210;-83
2022/09/07 03:58:50;;;;;;;12.87;5.47;;;7.00;99.90;;;;;;4771798;30;20268;-82
2022/09/07 04:01:20;;;;;;;9.40;4.93;;;6.90;99.90;;;;;;4771845;30;20212;-85
2022/09/07 04:03:47;;;;;;;10.00;5.10;;;6.90;99.90;;;;;;4771942;29;20233;-84
2022/09/07 04:06:15;;;;;;;9.87;5.13;;;6.90;99.90;;;;;;4772322;30;20211;-85
2022/09/07 04:08:43;;;;;;;9.27;4.93;;;6.80;99.90;;;;;;4772024;30;20212;-83
2022/09/07 04:11:16;;;;;;;8.10;4.87;;;6.80;99.90;;;;;;4771780;30;20230;-83
2022/09/07 04:13:45;;;;;;;9.17;5.00;;;6.80;99.90;;;;;;4788031;30;20206;-81
2022/09/07 04:16:18;;;;;;;13.13;5.13;;;6.80;99.90;;;;;;4787961;30;20310;-84
2022/09/07 04:18:46;;;;;;;9.80;5.30;;;6.80;99.90;;;;;;4788129;30;20757;-84
2022/09/07 04:21:13;;;;;;;14.77;5.63;;;6.80;99.90;;;;;;4772018;30;20200;-84
2022/09/07 04:23:46;;;;;;;11.43;5.30;;;6.80;99.90;;;;;;4771703;30;20563;-84
2022/09/07 04:26:20;;;;;;;10.07;5.40;;;6.80;99.90;;;;;;4786921;30;20299;-83
2022/09/07 04:28:48;;;;;;;9.40;4.90;;;6.80;99.90;;;;;;4786737;30;20269;-85
2022/09/07 04:31:16;;;;;;;10.77;5.13;;;6.90;99.90;;;;;;4771459;30;20235;-83
2022/09/07 04:33:45;;;;;;;12.47;5.07;;;6.90;99.90;;;;;;4771983;30;20207;-83
2022/09/07 04:36:16;;;;;;;9.70;5.13;;;6.90;99.90;;;;;;4772008;30;20210;-83
2022/09/07 04:38:45;;;;;;;10.93;5.67;;;7.00;99.90;;;;;;4786572;30;20200;-83
2022/09/07 04:41:14;;;;;;;11.50;5.47;;;7.00;99.90;;;;;;4771577;30;20227;-84
2022/09/07 04:43:46;;;;;;;8.60;5.33;;;7.00;99.90;;;;;;4786490;30;20216;-83
2022/09/07 04:46:25;;;;;;;11.07;5.40;;;7.10;99.90;;;;;;4786188;30;20281;-82
2022/09/07 04:49:01;;;;;;;9.47;5.13;;;7.10;99.90;;;;;;4771502;30;20241;-82
2022/09/07 04:51:30;;;;;;;13.50;5.60;;;7.20;99.90;;;;;;4786259;30;20228;-80
2022/09/07 04:54:00;;;;;;;11.53;5.60;;;7.20;99.90;;;;;;4787696;30;20195;-78
2022/09/07 04:56:27;;;;;;;11.13;5.47;;;7.30;99.90;;;;;;4771845;30;20212;-84
2022/09/07 04:58:55;;;;;;;12.60;5.73;;;7.40;99.90;;;;;;4787134;29;20208;-83
2022/09/07 05:01:24;;;;;;;10.63;6.00;;;7.50;99.90;;;;;;4774707;30;20613;-83
2022/09/07 05:03:52;;;;;;;11.87;6.80;;;7.50;99.90;;;;;;4792755;29;20203;-82
2022/09/07 05:06:21;;;;;;;13.43;5.90;;;7.70;99.90;;;;;;4792668;29;20306;-82
2022/09/07 05:08:51;;;;;;;14.40;6.10;;;7.60;99.90;;;;;;4792740;29;20203;-80
2022/09/07 05:11:27;;;;;;;12.30;6.57;;;7.70;99.90;;;;;;4807648;29;20322;-85
2022/09/07 05:14:00;;;;;;;12.03;6.27;;;7.70;99.90;;;;;;4809040;29;20233;-84
2022/09/07 05:16:28;;;;;;;11.57;5.93;;;7.80;99.90;;;;;;4808673;29;20207;-80
2022/09/07 05:19:04;;;;;;;12.10;6.30;;;7.90;99.90;;;;;;4809184;29;20195;-85
2022/09/07 05:21:34;;;;;;;15.37;6.70;;;8.00;99.90;;;;;;4807464;29;20249;-84
2022/09/07 05:24:01;;;;;;;14.67;6.30;;;8.10;99.90;;;;;;4792702;29;20237;-83
2022/09/07 05:26:34;;;;;;;13.63;6.43;;;8.20;99.90;;;;;;4792422;29;20212;-87
2022/09/07 05:29:06;;;;;;;14.27;6.07;;;8.30;99.90;;;;;;4792282;29;20235;-84
2022/09/07 05:32:01;;;;;;;14.93;6.13;;;8.40;99.90;;;;;;4807198;29;20238;-86
2022/09/07 05:34:31;;;;;;;39.53;8.57;;;8.50;99.90;;;;;;4807397;29;20246;-86
2022/09/07 05:37:00;;;;;;;32.47;9.00;;;8.60;99.90;;;;;;4792235;29;20250;-85
2022/09/07 05:39:31;;;;;;;33.23;8.70;;;8.70;99.90;;;;;;4792235;29;20226;-86
2022/09/07 05:42:10;;;;;;;30.07;7.97;;;8.80;99.90;;;;;;4792372;29;20195;-83
2022/09/07 05:44:37;;;;;;;19.13;6.17;;;9.00;99.90;;;;;;4792234;29;20214;-86
2022/09/07 05:47:08;;;;;;;13.97;6.00;;;9.10;99.90;;;;;;4791784;29;20255;-85
2022/09/07 05:49:35;;;;;;;16.60;5.90;;;9.20;99.90;;;;;;4807366;29;20676;-83
2022/09/07 05:52:02;;;;;;;12.43;5.53;;;9.30;99.90;;;;;;4791800;29;20224;-81
2022/09/07 05:54:29;;;;;;;15.93;6.00;;;9.40;99.90;;;;;;4807178;29;20246;-87
2022/09/07 05:56:56;;;;;;;39.80;8.93;;;9.40;99.90;;;;;;4792104;29;20214;-85
2022/09/07 05:59:23;;;;;;;53.80;10.17;;;9.60;99.90;;;;;;4791995;29;20283;-86
2022/09/07 06:01:50;;;;;;;34.50;7.87;;;9.70;99.90;;;;;;4788455;29;20245;-85
2022/09/07 06:04:25;;;;;;;21.73;7.20;;;9.80;99.90;;;;;;4773747;30;20270;-85
2022/09/07 06:06:52;;;;;;;31.10;8.97;;;9.90;99.90;;;;;;4773760;30;20226;-83
2022/09/07 06:09:40;;;;;;;82.93;14.73;;;10.00;99.90;;;;;;4773862;30;20301;-81
2022/09/07 06:12:27;;;;;;;51.50;11.20;;;10.10;99.90;;;;;;4772805;30;20587;-86
2022/09/07 06:14:54;;;;;;;22.27;6.47;;;10.20;99.90;;;;;;4788699;30;20235;-85
2022/09/07 06:17:21;;;;;;;35.10;8.73;;;10.30;99.90;;;;;;4789707;30;20199;-87
2022/09/07 06:19:48;;;;;;;12.87;5.50;;;10.40;99.90;;;;;;4774443;30;20721;-84
2022/09/07 06:22:15;;;;;;;14.77;5.40;;;10.50;99.90;;;;;;4789855;30;20204;-87
2022/09/07 06:24:42;;;;;;;14.13;5.27;;;10.60;99.90;;;;;;4773546;30;20289;-85
2022/09/07 06:27:09;;;;;;;10.17;4.67;;;10.80;99.90;;;;;;4773598;30;20240;-82
2022/09/07 06:29:36;;;;;;;11.53;5.10;;;10.80;99.90;;;;;;4789695;29;20577;-76
2022/09/07 06:32:04;;;;;;;9.07;5.10;;;10.90;99.90;;;;;;4788085;30;20572;-86
2022/09/07 06:34:51;;;;;;;27.43;7.73;;;11.00;99.90;;;;;;4788140;30;20205;-80
2022/09/07 06:37:18;;;;;;;15.90;5.63;;;11.20;99.90;;;;;;4803278;29;20212;-86
2022/09/07 06:39:53;;;;;;;17.13;5.60;;;11.30;99.90;;;;;;4789528;29;20647;-85
2022/09/07 06:42:20;;;;;;;9.80;4.80;;;11.50;99.90;;;;;;4787965;30;20203;-85
2022/09/07 06:45:03;;;;;;;15.97;5.80;;;11.50;99.90;;;;;;4791965;30;20233;-89
2022/09/07 06:47:30;;;;;;;19.90;6.50;;;11.70;99.90;;;;;;4801623;30;20687;-90
2022/09/07 06:50:23;;;;;;;11.43;4.87;;;11.90;99.90;;;;;;4758121;30;20206;-90
2022/09/07 06:52:50;;;;;;;9.97;4.90;;;12.00;99.90;;;;;;4736649;30;20213;-90
2022/09/07 06:55:49;;;;;;;9.97;4.87;;;12.00;99.90;;;;;;4737220;30;20213;-89
2022/09/07 06:58:16;;;;;;;14.70;4.77;;;12.20;99.90;;;;;;4751351;30;20641;-83
2022/09/07 07:01:05;;;;;;;17.03;5.43;;;12.30;99.90;;;;;;4736174;30;20233;-91
2022/09/07 07:03:52;;;;;;;12.63;5.37;;;12.40;99.90;;;;;;4767724;30;20267;-87
2022/09/07 07:06:20;;;;;;;9.87;4.90;;;12.50;99.90;;;;;;4769954;30;20215;-89
2022/09/07 07:08:53;;;;;;;13.07;4.80;;;12.60;99.90;;;;;;4769057;30;20583;-87
2022/09/07 07:11:22;;;;;;;9.73;4.07;;;12.70;99.90;;;;;;4768897;30;20328;-95
2022/09/07 07:14:06;;;;;;;10.50;4.47;;;12.80;99.90;;;;;;4684503;30;20378;-82
2022/09/07 07:16:35;;;;;;;8.83;4.50;;;12.90;99.90;;;;;;4699464;30;20215;-85
2022/09/07 07:19:15;;;;;;;12.47;4.80;;;13.10;99.90;;;;;;4700874;30;20212;-81
2022/09/07 07:21:50;;;;;;;10.17;4.57;;;13.30;99.90;;;;;;4685590;30;20243;-86
2022/09/07 07:27:24;;;;;;;9.30;3.50;;;13.60;99.90;;;;;;4808365;29;20223;-88
2022/09/07 07:30:16;;;;;;;5.70;3.20;;;13.80;99.90;;;;;;4810886;29;20215;-86
2022/09/07 07:32:51;;;;;;;5.53;2.93;;;14.00;99.90;;;;;;4805014;29;20231;-88
2022/09/07 07:35:18;;;;;;;4.07;2.50;;;14.00;99.90;;;;;;4806762;29;20203;-90
2022/09/07 07:37:46;;;;;;;6.10;2.60;;;14.20;99.90;;;;;;4791684;29;20217;-92
2022/09/07 07:40:14;;;;;;;6.03;2.67;;;14.30;99.90;;;;;;4790474;29;20675;-84
2022/09/07 07:42:44;;;;;;;4.77;2.30;;;14.50;99.90;;;;;;4790167;29;20601;-85
2022/09/07 07:45:12;;;;;;;4.03;2.20;;;14.60;99.90;;;;;;4805204;29;20327;-87
2022/09/07 07:48:02;;;;;;;5.13;1.90;;;14.80;99.90;;;;;;4771837;30;20276;-85
2022/09/07 07:50:29;;;;;;;5.40;1.70;;;14.90;98.40;;;;;;4787108;30;20203;-89
2022/09/07 07:52:58;;;;;;;2.27;1.30;;;14.90;98.20;;;;;;4786949;30;20224;-85
2022/09/07 07:55:46;;;;;;;2.63;1.40;;;15.10;97.00;;;;;;4787980;30;20200;-82
2022/09/07 07:58:26;;;;;;;2.10;1.30;;;15.20;95.90;;;;;;4772266;30;20212;-84
2022/09/07 08:00:54;;;;;;;5.47;1.50;;;15.30;94.80;;;;;;4771774;30;20613;-87
2022/09/07 08:03:54;;;;;;;4.83;1.27;;;15.40;94.60;;;;;;4788346;30;20192;-87
2022/09/07 08:06:33;;;;;;;1.80;1.10;;;15.60;94.30;;;;;;4735449;30;20311;-85
2022/09/07 08:09:10;;;;;;;4.97;1.30;;;15.80;93.30;;;;;;4735499;30;20245;-93
2022/09/07 08:11:42;;;;;;;1.20;0.90;;;15.90;92.10;;;;;;4749851;30;20241;-85
2022/09/07 08:14:21;;;;;;;4.60;1.30;;;16.00;92.30;;;;;;4735290;30;20209;-85
2022/09/07 08:16:48;;;;;;;3.20;1.10;;;16.10;92.10;;;;;;4735511;30;20270;-85
2022/09/07 08:19:15;;;;;;;3.20;1.20;;;16.40;92.00;;;;;;4749827;30;20327;-83
2022/09/07 08:21:42;;;;;;;3.53;1.20;;;16.50;91.30;;;;;;4735508;30;20224;-85
2022/09/07 08:26:40;;;;;;;4.43;1.00;;;16.70;90.10;;;;;;4805422;29;20290;-84
2022/09/07 08:29:07;;;;;;;5.00;1.30;;;17.30;90.80;;;;;;4807335;29;20214;-85
2022/09/07 08:31:34;;;;;;;2.77;1.30;;;18.40;86.00;;;;;;4807352;29;20225;-87
2022/09/07 08:34:06;;;;;;;5.07;0.93;;;19.20;81.80;;;;;;4808010;29;20229;-84
2022/09/07 08:36:33;;;;;;;4.33;0.90;;;20.00;77.50;;;;;;4829512;24;20330;-85
2022/09/07 08:39:00;;;;;;;2.67;0.93;;;20.30;72.40;;;;;;4811093;29;20286;-88
2022/09/07 08:49:27;;;;;;;3.13;0.80;;;20.50;65.50;;;;;;4920902;24;20248;-83
2022/09/07 08:58:52;;;;;;;3.43;1.07;;;21.50;61.60;;;;;;5299359;24;20243;-81
2022/09/07 09:11:18;;;;;;;2.07;0.83;;;22.80;56.60;;;;;;4771724;30;20220;-85
2022/09/07 09:20:49;;;;;;;1.10;0.80;;;23.10;54.90;;;;;;4770503;24;20246;-83
2022/09/07 09:23:18;;;;;;;4.50;1.00;;;23.60;53.90;;;;;;4755714;30;20197;-82
2022/09/07 09:26:12;;;;;;;2.55;0.82;;;23.70;54.10;;;;;;4764667;24;20293;-86
2022/09/07 09:29:19;;;;;;;2.63;1.13;;;23.90;53.30;;;;;;4789077;24;20256;-83
2022/09/07 09:41:14;;;;;;;4.63;1.15;;;24.50;51.20;;;;;;4754616;30;20225;-86
2022/09/07 09:44:22;;;;;;;3.40;0.90;;;24.80;50.50;;;;;;4756321;30;20299;-82
2022/09/07 09:47:31;;;;;;;3.20;0.93;;;24.70;49.70;;;;;;4754790;30;20225;-86
2022/09/07 09:56:51;;;;;;;3.38;1.00;;;25.10;47.70;;;;;;5153118;24;20245;-86
2022/09/07 10:00:17;;;;;;;1.52;0.88;;;24.50;48.20;;;;;;4744530;30;20200;-84
2022/09/07 10:03:37;;;;;;;2.25;1.02;;;24.90;47.60;;;;;;4699610;30;20616;-83
2022/09/07 10:06:57;;;;;;;1.98;0.90;;;25.40;46.90;;;;;;4685267;30;20797;-86
2022/09/07 10:09:33;;;;;;;3.78;0.90;;;26.20;45.50;;;;;;4700056;30;20421;-83
2022/09/07 10:12:52;;;;;;;5.05;1.20;;;26.20;44.50;;;;;;4700722;30;20239;-89
2022/09/07 10:24:56;;;;;;;6.07;1.00;;;26.70;43.40;;;;;;4753801;30;20213;-88
2022/09/07 10:27:32;;;;;;;1.73;1.00;;;26.90;42.90;;;;;;4755823;30;20216;-86
2022/09/07 10:30:03;;;;;;;2.25;1.25;;;27.10;42.60;;;;;;4755868;30;20671;-80
2022/09/07 10:33:01;;;;;;;2.80;1.05;;;27.60;43.00;;;;;;4755239;30;20251;-81
2022/09/07 10:35:33;;;;;;;4.20;1.00;;;27.70;42.10;;;;;;4756500;30;20201;-92
2022/09/07 10:38:18;;;;;;;3.38;1.05;;;28.00;41.20;;;;;;4755497;30;20278;-89
2022/09/07 10:41:27;;;;;;;1.67;0.70;;;27.80;40.90;;;;;;4756241;30;20213;-87
2022/09/07 10:48:02;;;;;;;2.03;1.00;;;28.10;40.50;;;;;;4851240;24;20252;-83
2022/09/07 10:54:05;;;;;;;1.38;0.90;;;28.60;40.00;;;;;;4999213;24;20719;-82
2022/09/07 11:04:17;;;;;;;1.40;0.80;;;28.50;39.50;;;;;;4772680;30;20269;-84
2022/09/07 11:06:54;;;;;;;3.83;0.77;;;28.70;39.70;;;;;;4766128;30;20634;-88
2022/09/07 11:09:35;;;;;;;1.63;0.82;;;29.20;40.00;;;;;;4773230;30;20295;-89
2022/09/07 11:12:05;;;;;;;2.25;0.95;;;29.50;39.00;;;;;;4772844;30;20224;-85
2022/09/07 11:14:44;;;;;;;2.00;0.80;;;29.80;38.80;;;;;;4773401;30;20204;-86
2022/09/07 11:17:19;;;;;;;1.80;0.80;;;29.70;37.90;;;;;;4773001;30;20265;-88
2022/09/07 11:20:23;;;;;;;1.00;0.73;;;29.90;37.70;;;;;;4772521;30;20562;-86
2022/09/07 11:23:30;;;;;;;1.63;0.80;;;30.40;36.50;;;;;;4772469;30;20200;-89
2022/09/07 11:26:30;;;;;;;1.48;0.80;;;30.20;36.40;;;;;;4772703;30;20208;-88
2022/09/07 11:29:15;;;;;;;2.20;0.70;;;30.30;35.40;;;;;;4772576;30;20204;-88
2022/09/07 11:32:32;;;;;;;2.92;0.88;;;30.60;34.90;;;;;;4772201;30;20698;-89
2022/09/07 11:35:30;;;;;;;1.17;0.93;;;31.50;35.30;;;;;;4772202;30;20193;-87
2022/09/07 11:38:02;;;;;;;4.43;0.90;;;31.80;33.80;;;;;;4772010;30;20633;-87
2022/09/07 11:40:42;;;;;;;5.88;1.30;;;32.20;34.30;;;;;;4772670;30;20564;-87
2022/09/07 11:43:18;;;;;;;1.70;0.90;;;32.40;33.80;;;;;;4772096;30;20562;-91
2022/09/07 11:46:07;;;;;;;3.47;0.90;;;32.60;33.80;;;;;;4788446;29;20223;-87
2022/09/07 11:49:00;;;;;;;3.83;0.93;;;33.70;33.20;;;;;;4731454;24;20242;-82
2022/09/07 11:51:39;;;;;;;4.00;0.98;;;32.50;33.00;;;;;;4715960;30;20218;-84
2022/09/07 11:54:38;;;;;;;1.88;0.90;;;32.80;33.20;;;;;;4731050;30;20222;-85
2022/09/07 11:57:26;;;;;;;1.75;0.80;;;33.50;32.60;;;;;;4730738;30;20211;-85
2022/09/07 12:03:33;;;;;;;3.60;0.90;;;34.40;31.90;;;;;;4960020;24;20740;-82
2022/09/07 12:06:48;;;;;;;3.28;0.80;;;34.90;31.40;;;;;;4787969;30;20623;-81
2022/09/07 12:09:56;;;;;;;4.32;0.85;;;34.70;30.60;;;;;;4752335;30;20251;-82
2022/09/07 12:12:36;;;;;;;2.70;0.80;;;35.10;30.90;;;;;;4697152;30;20235;-83
2022/09/07 12:15:09;;;;;;;4.40;0.80;;;35.20;30.80;;;;;;4700118;24;20197;-81
2022/09/07 12:18:21;;;;;;;2.35;0.90;;;35.20;30.40;;;;;;4740416;24;20245;-79
2022/09/07 12:20:48;;;;;;;1.25;0.80;;;35.30;30.20;;;;;;4703152;30;20339;-84
2022/09/07 12:27:00;;;;;;;1.55;1.00;;;35.20;30.00;;;;;;4786392;30;20686;-85
2022/09/07 12:29:34;;;;;;;2.20;0.80;;;34.80;29.80;;;;;;4785561;24;20251;-83
2022/09/07 12:32:02;;;;;;;1.10;0.70;;;34.80;29.90;;;;;;4768466;30;20247;-84
2022/09/07 12:34:52;;;;;;;6.20;1.02;;;34.60;30.10;;;;;;4768893;30;20279;-85
2022/09/07 12:37:39;;;;;;;1.90;0.90;;;33.90;29.70;;;;;;4768577;30;20209;-84
2022/09/07 12:40:32;;;;;;;1.30;0.68;;;33.80;30.20;;;;;;4769514;30;20287;-87
2022/09/07 12:55:08;;;;;;;1.52;0.90;;;33.50;30.60;;;;;;4837008;24;20340;-85
2022/09/07 12:58:18;;;;;;;2.17;0.82;;;33.10;30.60;;;;;;4771003;30;20553;-81
2022/09/07 13:01:08;;;;;;;1.42;0.82;;;32.60;30.80;;;;;;4781081;24;20244;-85
2022/09/07 13:03:50;;;;;;;3.38;0.93;;;31.60;31.40;;;;;;4768268;30;20652;-85
2022/09/07 13:07:07;;;;;;;2.25;0.80;;;30.80;32.50;;;;;;4769678;30;20205;-82
2022/09/07 13:10:11;;;;;;;3.05;0.98;;;29.80;32.70;;;;;;4768288;30;20239;-91
2022/09/07 13:12:51;;;;;;;6.53;1.20;;;28.50;33.90;;;;;;4783015;30;20226;-83
2022/09/07 13:15:40;;;;;;;5.45;1.02;;;27.70;34.80;;;;;;4768320;30;20383;-83
2022/09/07 13:18:28;;;;;;;2.97;1.13;;;27.00;35.50;;;;;;4783265;30;20221;-87
2022/09/07 13:21:08;;;;;;;2.97;1.10;;;26.40;35.50;;;;;;4770383;30;20209;-80
2022/09/07 13:24:05;;;;;;;3.53;1.30;;;26.00;36.70;;;;;;4771573;30;20226;-79
2022/09/07 13:27:05;;;;;;;3.90;1.10;;;25.60;37.20;;;;;;4771708;30;20598;-82
2022/09/07 13:29:40;;;;;;;4.50;1.17;;;25.00;38.10;;;;;;4771532;30;20204;-80
2022/09/07 13:32:32;;;;;;;1.98;1.17;;;24.80;38.40;;;;;;4771493;30;20691;-80
2022/09/07 13:35:23;;;;;;;2.58;1.30;;;24.50;39.10;;;;;;4786129;30;20232;-81
2022/09/07 13:37:59;;;;;;;3.55;1.15;;;24.30;39.50;;;;;;4771315;30;20216;-81
2022/09/07 13:40:32;;;;;;;2.70;0.90;;;24.10;40.00;;;;;;4772630;30;20675;-79
2022/09/07 13:43:01;;;;;;;1.00;0.80;;;23.80;40.30;;;;;;4771340;30;20205;-79
2022/09/07 13:45:53;;;;;;;1.87;0.80;;;23.70;41.50;;;;;;4771446;30;20624;-78
2022/09/07 13:48:50;;;;;;;3.53;1.27;;;23.60;41.60;;;;;;4768290;30;20228;-80
2022/09/07 13:51:41;;;;;;;1.60;1.00;;;23.50;41.00;;;;;;4767765;30;20209;-78
2022/09/07 13:54:50;;;;;;;2.40;1.00;;;23.30;41.00;;;;;;4753261;30;20233;-80
2022/09/07 13:57:55;;;;;;;5.03;1.43;;;23.20;42.00;;;;;;4702727;30;20213;-81
2022/09/07 14:00:23;;;;;;;2.23;0.97;;;22.90;41.70;;;;;;4702431;30;20250;-78
2022/09/07 14:02:52;;;;;;;1.73;1.00;;;23.00;42.50;;;;;;4702632;30;20589;-79
2022/09/07 14:05:22;;;;;;;2.10;1.30;;;23.20;42.50;;;;;;4703098;30;20317;-80
2022/09/07 14:07:58;;;;;;;2.70;0.97;;;23.20;42.10;;;;;;4717258;30;20250;-82
2022/09/07 14:10:28;;;;;;;3.63;1.15;;;23.20;42.80;;;;;;4717130;30;20293;-79
2022/09/07 14:13:11;;;;;;;2.60;1.10;;;23.10;43.10;;;;;;4716764;30;20254;-80
2022/09/07 14:15:42;;;;;;;1.60;1.00;;;23.00;43.50;;;;;;4717040;30;20207;-79
2022/09/07 14:18:32;;;;;;;6.47;1.30;;;22.90;43.80;;;;;;4702764;30;20645;-79
2022/09/07 14:21:16;;;;;;;6.13;1.20;;;22.80;42.80;;;;;;4688404;30;20313;-80
2022/09/07 14:23:50;;;;;;;2.33;1.30;;;22.80;43.20;;;;;;4716834;30;20218;-80
2022/09/07 14:26:23;;;;;;;5.73;1.33;;;22.50;43.30;;;;;;4716936;30;20211;-79
2022/09/07 14:28:56;;;;;;;4.03;1.10;;;22.40;43.30;;;;;;4702172;30;20210;-79
2022/09/07 14:31:24;;;;;;;2.60;1.20;;;22.40;43.30;;;;;;4701298;30;20211;-79
2022/09/07 14:33:57;;;;;;;3.50;1.10;;;22.30;43.90;;;;;;4715367;30;20695;-77
2022/09/07 14:36:30;;;;;;;3.63;1.10;;;22.30;43.70;;;;;;4752539;30;20656;-77
2022/09/07 14:39:42;;;;;;;2.60;1.20;;;22.20;44.00;;;;;;4739982;30;20205;-79
2022/09/07 14:42:16;;;;;;;3.60;1.30;;;22.40;43.80;;;;;;4753090;30;20218;-77
2022/09/07 14:44:44;;;;;;;3.33;1.50;;;22.40;43.70;;;;;;4737967;30;20204;-79
2022/09/07 14:47:47;;;;;;;4.37;1.93;;;22.40;43.30;;;;;;4752198;30;20329;-77
2022/09/07 14:50:37;;;;;;;4.83;1.90;;;22.40;43.00;;;;;;4752195;30;20217;-79
2022/09/07 14:53:10;;;;;;;2.90;1.70;;;22.20;42.80;;;;;;4752009;30;20237;-79
2022/09/07 14:56:07;;;;;;;4.20;1.70;;;22.10;43.00;;;;;;4752199;30;20296;-78
2022/09/07 14:58:34;;;;;;;3.87;1.77;;;22.00;43.80;;;;;;4752102;30;20201;-77
2022/09/07 15:01:23;;;;;;;4.20;1.57;;;22.00;43.60;;;;;;4752073;30;20307;-77
2022/09/07 15:04:18;;;;;;;2.80;1.50;;;22.20;43.80;;;;;;4751832;30;20206;-79
2022/09/07 15:06:45;;;;;;;3.17;1.67;;;22.20;43.00;;;;;;4766611;30;20209;-77
2022/09/07 15:09:37;;;;;;;4.85;1.60;;;22.20;42.70;;;;;;4766797;30;20214;-78
2022/09/07 15:12:25;;;;;;;4.03;1.30;;;22.00;42.70;;;;;;4766534;30;20316;-78
2022/09/07 15:15:25;;;;;;;2.57;1.10;;;21.70;43.30;;;;;;4751835;30;20201;-82
2022/09/07 15:17:59;;;;;;;3.90;1.60;;;21.50;44.00;;;;;;4766606;30;20296;-78
2022/09/07 15:20:43;;;;;;;2.80;1.20;;;21.30;44.40;;;;;;4751793;30;20361;-78
2022/09/07 15:23:17;;;;;;;3.73;1.30;;;21.10;45.00;;;;;;4751387;30;20239;-79
2022/09/07 15:25:49;;;;;;;3.27;1.13;;;21.00;44.70;;;;;;4751559;30;20201;-77
2022/09/07 15:28:31;;;;;;;4.20;1.30;;;20.90;44.70;;;;;;4753160;30;20622;-79